Latest Weather Observations for Hamilton

IDV60801

Issued at 7:02 pm EDT Thursday 23 March 2017 (issued every 30 minutes, with the page automatically refreshed every 10 minutes)

About weather observations | Map of weather stations | Latest weather observations for VIC | Other Formats
Station Details ID: 090173 Name: HAMILTON AIRPORT Lat: -37.65 Lon: 142.06 Height: 241.1 m
Data from the previous 72 hours. | See also: Recent months at Hamilton
Date/Time
EDT
Temp
°C
App
Temp
°C
Dew
Point
°C
Rel
Hum
%
Delta-T
°C
Wind Press
QNH
hPa
Press
MSL
hPa
Rain since
9am
mm
Dir  Spd
km/h
Gust
km/h
Spd
kts
Gust
kts
23/07:00pm 20.0 14.1 11.0 56 5.0 ESE 33 39 18 21 1019.1 1018.6 0.0
23/06:30pm 21.1 14.8 10.9 52 5.7 ESE 35 44 19 24 1018.7 1018.2 0.0
23/06:00pm 21.9 15.9 10.7 49 6.2 ESE 33 43 18 23 1018.8 1018.3 0.0
23/05:30pm 22.3 16.4 11.1 49 6.3 SE 33 44 18 24 1018.8 1018.3 0.0
23/05:00pm 22.5 16.9 11.6 50 6.2 ESE 32 43 17 23 1018.7 1018.2 0.0
23/04:30pm 22.1 16.2 11.2 50 6.1 ESE 33 46 18 25 1018.7 1018.2 0.0
23/04:00pm 21.5 16.5 12.1 55 5.3 ESE 30 41 16 22 1019.1 1018.6 0.0
23/03:30pm 21.5 15.7 12.6 57 5.1 ESE 35 44 19 24 1019.1 1018.6 0.0
23/03:00pm 21.7 16.1 12.0 54 5.5 ESE 33 44 18 24 1019.4 1018.9 0.0
23/02:30pm 23.2 18.4 13.9 56 5.5 ESE 32 41 17 22 1020.1 1019.6 0.0
23/02:00pm 20.7 15.8 12.7 60 4.6 ESE 30 39 16 21 1020.6 1020.1 0.0
23/01:30pm 20.2 14.6 12.2 60 4.5 ESE 33 44 18 24 1020.6 1020.1 0.0
23/01:00pm 19.0 13.5 12.5 66 3.7 ESE 33 44 18 24 1021.0 1020.5 0.0
23/12:30pm 18.5 13.3 12.9 70 3.2 ESE 32 43 17 23 1021.6 1021.1 0.0
23/12:00pm 17.8 11.9 12.3 70 3.1 E 35 44 19 24 1021.7 1021.2 0.0
23/11:30am 17.0 11.5 12.5 75 2.5 ESE 33 44 18 24 1021.9 1021.4 0.0
23/11:00am 16.4 11.1 12.4 77 2.2 ESE 32 39 17 21 1021.9 1021.4 0.0
23/10:30am 15.9 10.6 12.5 80 1.9 ESE 32 44 17 24 1021.8 1021.3 0.0
23/10:00am 15.6 10.1 12.4 81 1.8 ESE 33 43 18 23 1021.8 1021.3 0.0
23/09:30am 15.3 10.0 12.4 83 1.6 ESE 32 39 17 21 1021.5 1021.0 0.0
23/09:00am 15.2 10.7 12.5 84 1.5 ESE 28 37 15 20 1021.4 1020.9 0.0
23/08:50am 15.0 10.5 12.5 85 1.4 ESE 28 35 15 19 1021.4 1020.9 0.0
23/08:30am 14.6 10.4 12.3 86 1.3 ESE 26 35 14 19 1021.3 1020.8 0.0
23/08:00am 14.5 9.5 12.2 86 1.3 ESE 30 37 16 20 1021.0 1020.5 0.0
23/07:30am 14.5 8.9 12.0 85 1.4 ESE 33 46 18 25 1020.6 1020.1 0.0
23/07:00am 14.5 9.0 12.0 85 1.4 ESE 32 43 17 23 1020.4 1019.9 0.0
23/06:30am 14.6 9.3 12.5 87 1.2 ESE 32 39 17 21 1020.1 1019.6 0.0
23/06:04am 14.5 9.0 12.5 88 1.1 ESE 33 44 18 24 1019.9 1019.4 0.0
23/06:00am 14.4 9.1 12.4 88 1.1 ESE 32 44 17 24 1019.8 1019.3 0.0
23/05:51am 14.3 9.8 12.5 89 1.0 ESE 28 35 15 19 1020.0 1019.5 0.0
23/05:30am 14.4 9.5 12.6 89 1.0 SE 30 35 16 19 1020.1 1019.6 0.0
23/05:00am 14.6 9.8 12.8 89 1.0 ESE 30 39 16 21 1020.1 1019.6 0.0
23/04:30am 14.5 10.8 12.7 89 1.0 SE 24 32 13 17 1020.1 1019.6 0.0
23/04:00am 14.8 10.4 12.8 88 1.1 ESE 28 33 15 18 1020.1 1019.6 0.0
23/03:30am 14.9 10.5 12.9 88 1.1 ESE 28 35 15 19 1020.2 1019.7 0.0
23/03:00am 14.9 10.5 12.9 88 1.1 ESE 28 37 15 20 1020.1 1019.6 0.0
23/02:30am 14.9 10.5 12.9 88 1.1 ESE 28 39 15 21 1020.2 1019.7 0.0
23/02:00am 15.1 11.1 13.1 88 1.1 ESE 26 35 14 19 1020.2 1019.7 0.0
23/01:30am 15.2 10.9 13.2 88 1.1 ESE 28 37 15 20 1020.4 1019.9 0.0
23/01:26am 15.2 11.3 13.4 89 1.0 ESE 26 37 14 20 1020.4 1019.9 0.0
23/01:00am 14.9 11.8 13.4 91 0.8 ESE 22 28 12 15 1020.6 1020.1 0.0
23/12:30am 14.8 12.1 13.5 92 0.7 SE 20 28 11 15 1020.5 1020.0 0.0
23/12:00am 14.8 12.0 13.3 91 0.8 SE 20 28 11 15 1020.5 1020.0 0.0
 
Date/Time
EDT
Temp
°C
App
Temp
°C
Dew
Point
°C
Rel
Hum
%
Delta-T
°C
Wind Press
QNH
hPa
Press
MSL
hPa
Rain since
9am
mm
Dir  Spd
km/h
Gust
km/h
Spd
kts
Gust
kts
22/11:48pm 14.9 11.8 13.4 91 0.8 SE 22 28 12 15 1020.3 1019.8 0.0
22/11:30pm 15.2 12.2 13.6 90 0.9 SE 22 28 12 15 1020.3 1019.8 0.0
22/11:12pm 15.5 12.5 13.7 89 1.0 SE 22 28 12 15 1020.4 1019.9 0.0
22/11:00pm 15.5 12.5 13.7 89 1.0 SE 22 30 12 16 1020.4 1019.9 0.0
22/10:30pm 15.8 12.8 13.8 88 1.1 SE 22 28 12 15 1020.3 1019.8 0.0
22/10:00pm 16.2 12.6 14.2 88 1.1 SE 26 33 14 18 1020.3 1019.8 0.0
22/09:30pm 16.2 12.7 14.4 89 1.0 SSE 26 39 14 21 1020.0 1019.5 0.0
22/09:12pm 16.2 12.3 14.4 89 1.0 SSE 28 39 15 21 1019.7 1019.1 0.0
22/09:00pm 16.3 12.8 14.5 89 1.0 SSE 26 35 14 19 1019.8 1019.3 0.0
22/08:30pm 16.5 13.4 14.5 88 1.2 SSE 24 33 13 18 1019.7 1019.1 0.0
22/08:06pm 16.6 13.1 14.4 87 1.3 SSE 26 35 14 19 1019.3 1018.8 0.0
22/08:00pm 16.7 14.0 14.5 87 1.3 SSE 22 32 12 17 1019.2 1018.7 0.0
22/07:45pm 16.9 13.4 14.5 86 1.4 SSE 26 35 14 19 1019.2 1018.7 0.0
22/07:30pm 17.2 14.5 14.7 85 1.5 SSE 22 35 12 19 1019.0 1018.5 0.0
22/07:00pm 17.5 14.4 14.6 83 1.7 SSE 24 32 13 17 1018.9 1018.4 0.0
22/06:30pm 17.8 13.9 14.5 81 1.9 SSE 28 35 15 19 1018.7 1018.2 0.0
22/06:00pm 17.9 13.7 14.6 81 1.9 SSE 30 37 16 20 1018.6 1018.1 0.0
22/05:30pm 18.7 14.9 14.6 77 2.4 SSE 28 37 15 20 1018.2 1017.7 0.0
22/05:00pm 18.4 14.5 14.5 78 2.3 SSE 28 39 15 21 1018.4 1017.9 0.0
22/04:30pm 19.3 15.5 14.8 75 2.7 SSE 28 37 15 20 1018.3 1017.8 0.0
22/04:00pm 19.1 15.0 14.8 76 2.5 SSE 30 41 16 22 1018.3 1017.8 0.0
22/03:30pm 18.3 13.4 14.4 78 2.3 S 33 39 18 21 1018.5 1018.0 0.0
22/03:00pm 18.5 14.7 14.6 78 2.3 S 28 33 15 18 1018.5 1018.0 0.0
22/02:43pm 18.0 14.2 14.7 81 1.9 SE 28 39 15 21 1018.6 1018.1 0.0
22/02:30pm 18.2 13.8 14.1 77 2.4 SSE 30 39 16 21 1018.6 1018.1 0.0
22/02:16pm 17.9 14.1 14.6 81 1.9 SSE 28 37 15 20 1018.5 1018.0 0.0
22/02:00pm 17.8 13.9 14.5 81 1.9 SSE 28 37 15 20 1018.5 1018.0 0.0
22/01:30pm 17.7 13.5 14.6 82 1.8 SSE 30 41 16 22 1018.7 1018.2 0.0
22/01:13pm 18.0 13.1 14.3 79 2.1 SE 33 46 18 25 1018.9 1018.4 0.0
22/01:00pm 18.3 13.8 14.8 80 2.1 SE 32 41 17 22 1018.8 1018.3 0.0
22/12:30pm 17.5 13.0 14.8 84 1.6 SE 32 41 17 22 1019.0 1018.5 0.0
22/12:00pm 16.3 12.0 14.5 89 1.0 SSE 30 41 16 22 1019.3 1018.8 0.0
22/11:30am 16.1 11.5 14.6 91 0.9 SE 32 41 17 22 1019.3 1018.8 0.0
22/11:00am 15.7 11.1 14.6 93 0.6 SSE 32 46 17 25 1019.6 1019.0 0.0
22/10:30am 15.5 10.8 14.4 93 0.6 SE 32 41 17 22 1019.1 1018.6 0.0
22/10:00am 15.5 11.2 14.5 94 0.6 SE 30 35 16 19 1018.9 1018.4 0.0
22/09:30am 15.1 11.5 14.3 95 0.5 SSE 26 35 14 19 1018.7 1018.2 0.0
22/09:00am 15.1 11.5 14.3 95 0.5 SE 26 33 14 18 1018.4 1017.9 33.4
22/08:30am 14.9 11.3 14.1 95 0.5 SE 26 37 14 20 1018.1 1017.6 33.2
22/08:00am 14.8 10.8 14.0 95 0.5 SE 28 39 15 21 1017.4 1016.9 33.2
22/07:30am 14.8 11.1 14.0 95 0.5 SSE 26 35 14 19 1017.3 1016.8 33.2
22/07:00am 14.8 11.1 14.0 95 0.5 SE 26 33 14 18 1017.0 1016.5 33.2
22/06:57am 14.8 10.8 14.0 95 0.5 SE 28 35 15 19 1017.0 1016.5 33.2
22/06:30am 14.7 9.9 13.9 95 0.5 SSE 32 39 17 21 1016.8 1016.3 33.2
22/06:00am 14.9 10.5 14.1 95 0.5 SSE 30 39 16 21 1016.8 1016.3 33.0
22/05:54am 15.0 11.4 14.2 95 0.5 SSE 26 39 14 21 1016.8 1016.3 33.0
22/05:30am 15.2 12.1 14.4 95 0.5 SE 24 32 13 17 1016.5 1016.0 32.8
22/05:00am 15.1 11.5 14.3 95 0.5 SE 26 33 14 18 1016.5 1016.0 32.6
22/04:30am 15.4 12.3 14.4 94 0.6 SSE 24 37 13 20 1016.2 1015.7 32.2
22/04:25am 15.4 12.3 14.4 94 0.6 SSE 24 37 13 20 1016.2 1015.7 32.2
22/04:00am 15.4 12.3 14.4 94 0.6 SSE 24 35 13 19 1016.2 1015.7 32.2
22/03:30am 15.3 12.1 14.3 94 0.6 SE 24 32 13 17 1016.1 1015.5 32.2
22/03:00am 15.4 12.6 14.4 94 0.6 SE 22 32 12 17 1015.9 1015.3 32.2
22/02:30am 15.4 11.9 14.4 94 0.6 SE 26 32 14 17 1015.8 1015.2 32.2
22/02:27am 15.4 11.9 14.4 94 0.6 SE 26 32 14 17 1015.8 1015.2 32.2
22/02:00am 15.5 11.6 14.5 94 0.6 SE 28 35 15 19 1015.6 1015.0 32.2
22/01:58am 15.5 12.0 14.5 94 0.6 SE 26 35 14 19 1015.6 1015.0 32.2
22/01:30am 15.6 11.4 14.6 94 0.6 SSE 30 44 16 24 1015.6 1015.0 32.2
22/01:00am 15.6 11.8 14.8 95 0.5 SSE 28 39 15 21 1015.5 1014.9 32.2
22/12:33am 15.5 11.7 14.7 95 0.5 SSE 28 35 15 19 1015.3 1014.7 32.2
22/12:30am 15.4 11.2 14.6 95 0.5 SSE 30 35 16 19 1015.3 1014.7 32.2
22/12:21am 15.4 11.6 14.6 95 0.5 SSE 28 37 15 20 1015.1 1014.6 32.2
22/12:00am 15.3 10.7 14.5 95 0.5 SE 32 43 17 23 1015.0 1014.5 32.2
 
Date/Time
EDT
Temp
°C
App
Temp
°C
Dew
Point
°C
Rel
Hum
%
Delta-T
°C
Wind Press
QNH
hPa
Press
MSL
hPa
Rain since
9am
mm
Dir  Spd
km/h
Gust
km/h
Spd
kts
Gust
kts
21/11:30pm 15.4 10.6 14.6 95 0.5 SSE 33 43 18 23 1014.8 1014.3 32.2
21/11:01pm 15.4 10.6 14.6 95 0.5 SSE 33 54 18 29 1014.6 1014.1 32.2
21/11:00pm 15.3 10.5 14.5 95 0.5 SSE 33 48 18 26 1014.6 1014.1 32.2
21/10:42pm 15.3 10.5 14.5 95 0.5 SSE 33 46 18 25 1014.3 1013.8 32.2
21/10:30pm 15.4 10.6 14.6 95 0.5 SSE 33 43 18 23 1014.2 1013.7 32.2
21/10:00pm 15.5 10.9 14.7 95 0.5 SE 32 43 17 23 1013.9 1013.4 32.2
21/09:57pm 15.5 10.7 14.7 95 0.5 SE 33 48 18 26 1013.9 1013.4 32.2
21/09:34pm 15.5 10.9 14.7 95 0.5 SE 32 41 17 22 1013.5 1013.0 32.2
21/09:30pm 15.4 10.8 14.6 95 0.5 SE 32 41 17 22 1013.4 1012.9 32.2
21/09:00pm 15.8 12.9 15.0 95 0.5 SSE 24 35 13 19 1013.4 1012.9 32.2
21/08:30pm 16.0 13.2 15.4 96 0.4 SSE 24 32 13 17 1013.4 1012.9 32.0
21/08:00pm 16.2 15.2 15.6 96 0.4 SSE 15 22 8 12 1013.5 1013.0 32.0
21/07:30pm 16.2 13.9 15.6 96 0.4 SSE 22 30 12 16 1012.8 1012.3 32.0
21/07:00pm 16.4 15.1 15.8 96 0.4 SSE 17 24 9 13 1012.7 1012.2 32.0
21/06:30pm 16.6 14.3 15.8 95 0.5 S 22 30 12 16 1012.7 1012.2 31.8
21/06:00pm 16.8 14.2 16.0 95 0.5 SSE 24 28 13 15 1012.0 1011.4 31.8
21/05:30pm 17.2 15.1 16.2 94 0.6 SSE 22 28 12 15 1011.7 1011.1 31.8
21/05:16pm 17.8 15.5 16.7 93 0.7 SSE 24 30 13 16 1011.7 1011.1 31.8
21/05:00pm 17.9 16.3 16.6 92 0.8 SSE 20 28 11 15 1012.0 1011.4 31.8
21/04:30pm 18.3 17.1 17.0 92 0.8 SSE 19 24 10 13 1011.8 1011.2 31.8
21/04:00pm 18.2 17.7 17.0 93 0.7 S 15 22 8 12 1011.7 1011.1 31.8
21/03:30pm 17.9 14.9 16.9 94 0.6 SSE 28 37 15 20 1011.0 1010.4 31.8
21/03:28pm 17.9 14.9 16.9 94 0.6 SSE 28 37 15 20 1010.9 1010.3 31.8
21/03:00pm 18.2 19.0 17.4 95 0.5 SW 9 11 5 6 1012.4 1011.8 31.8
21/02:30pm 17.9 18.2 17.1 95 0.5 SW 11 15 6 8 1012.8 1012.3 31.8
21/02:00pm 17.8 18.9 17.2 96 0.4 SSW 7 11 4 6 1012.9 1012.4 31.8
21/01:30pm 17.6 17.5 17.0 96 0.4 SSW 13 17 7 9 1013.0 1012.5 31.4
21/01:07pm 17.6 15.8 17.0 96 0.4 SE 22 32 12 17 1012.5 1011.9 30.2
21/01:03pm 17.5 15.3 16.9 96 0.4 SE 24 32 13 17 1012.3 1011.7 29.8
21/01:00pm 17.5 15.3 16.9 96 0.4 SE 24 32 13 17 1012.1 1011.5 29.6
21/12:30pm 17.6 18.3 17.0 96 0.4 S 9 13 5 7 1013.1 1012.6 25.6
21/12:14pm 17.5 17.4 16.9 96 0.4 SSE 13 19 7 10 1013.1 1012.6 22.2
21/12:00pm 17.4 15.9 16.8 96 0.4 SSE 20 26 11 14 1013.0 1012.5 19.4
21/11:30am 17.2 16.1 16.4 95 0.5 SSW 17 20 9 11 1013.4 1012.9 8.2
21/11:00am 18.0 17.2 17.0 94 0.6 SSW 17 20 9 11 1013.2 1012.7 1.6
21/10:52am 18.1 17.3 17.1 94 0.6 SW 17 24 9 13 1013.1 1012.6 0.8
21/10:30am 18.8 18.7 17.8 94 0.6 ESE 15 20 8 11 1013.1 1012.6 0.0
21/10:00am 18.7 18.2 17.7 94 0.6 ESE 17 20 9 11 1012.9 1012.4 0.0
21/09:30am 18.3 17.3 17.5 95 0.5 ESE 19 24 10 13 1012.9 1012.4 0.0
21/09:00am 17.9 16.7 17.1 95 0.5 ESE 19 22 10 12 1012.8 1012.3 2.4
21/08:53am 17.8 16.5 16.8 94 0.6 ESE 19 20 10 11 1012.8 1012.3 2.4
21/08:30am 17.8 16.5 16.8 94 0.6 ESE 19 22 10 12 1012.7 1012.2 2.2
21/08:00am 17.7 16.7 16.7 94 0.6 ESE 17 20 9 11 1012.6 1012.1 2.2
21/07:30am 17.6 16.9 16.5 93 0.7 ESE 15 19 8 10 1012.4 1011.8 2.2
21/07:00am 17.5 16.4 16.4 93 0.7 ESE 17 20 9 11 1012.5 1011.9 2.2
21/06:30am 17.5 16.0 16.2 92 0.8 ESE 19 24 10 13 1012.5 1011.9 1.6
21/06:00am 17.4 15.2 15.9 91 0.9 ESE 22 28 12 15 1012.3 1011.7 1.6
21/05:30am 17.4 15.2 15.9 91 0.9 ESE 22 26 12 14 1012.4 1011.8 1.6
21/05:00am 17.5 15.8 15.8 90 1.0 SE 19 22 10 12 1012.6 1012.1 1.6
21/04:30am 17.7 16.3 15.5 87 1.3 SE 17 22 9 12 1012.7 1012.2 1.6
21/04:00am 17.9 14.8 15.7 87 1.3 ESE 26 30 14 16 1013.1 1012.6 1.6
21/03:33am 18.0 16.4 16.0 88 1.2 ESE 19 24 10 13 1013.5 1013.0 1.6
21/03:30am 18.0 16.8 16.0 88 1.2 ESE 17 22 9 12 1013.4 1012.9 1.6
21/03:20am 18.0 16.4 16.0 88 1.2 ESE 19 24 10 13 1013.3 1012.8 1.4
21/03:00am 18.1 16.3 16.1 88 1.2 SE 20 24 11 13 1013.0 1012.5 0.2
21/02:30am 18.7 17.0 16.3 86 1.4 SE 20 22 11 12 1013.4 1012.9 0.2
21/02:00am 19.3 17.8 16.2 82 1.9 ESE 19 22 10 12 1013.5 1013.0 0.0
21/01:30am 19.6 17.8 16.1 80 2.1 ESE 20 26 11 14 1013.5 1013.0 0.0
21/01:00am 19.8 18.1 16.3 80 2.1 ESE 20 28 11 15 1013.7 1013.2 0.0
21/12:30am 19.6 17.8 16.1 80 2.1 E 20 30 11 16 1014.0 1013.5 0.0
21/12:00am 19.2 17.6 16.1 82 1.9 ENE 19 22 10 12 1014.5 1014.0 0.0
 
Date/Time
EDT
Temp
°C
App
Temp
°C
Dew
Point
°C
Rel
Hum
%
Delta-T
°C
Wind Press
QNH
hPa
Press
MSL
hPa
Rain since
9am
mm
Dir  Spd
km/h
Gust
km/h
Spd
kts
Gust
kts
20/11:30pm 19.4 15.6 16.6 84 1.7 ESE 32 43 17 23 1014.4 1013.9 0.0
20/11:00pm 19.5 17.5 17.5 88 1.2 ESE 24 30 13 16 1014.5 1014.0 0.0
20/10:30pm 19.6 18.5 17.7 89 1.2 ESE 20 24 11 13 1014.6 1014.1 0.0
20/10:00pm 19.9 18.7 17.5 86 1.5 E 20 26 11 14 1014.8 1014.3 0.0
20/09:30pm 20.0 18.3 17.2 84 1.7 ESE 22 28 12 15 1014.6 1014.1 0.0
20/09:00pm 19.6 18.5 16.3 81 2.0 ESE 17 20 9 11 1014.7 1014.2 0.0
20/08:30pm 20.1 18.8 15.9 77 2.5 ESE 17 20 9 11 1014.2 1013.7 0.0
20/08:00pm 21.3 20.5 16.0 72 3.2 SSE 15 20 8 11 1013.7 1013.2 0.0
20/07:30pm 21.7 22.1 16.2 71 3.4 SE 9 13 5 7 1013.8 1013.3 0.0

Other Formats:

Comma delimited format used in spreadsheet applications
http://www.bom.gov.au/fwo/IDV60801/IDV60801.94829.axf

JavaScript Object Notation format (JSON) in row-major order
http://www.bom.gov.au/fwo/IDV60801/IDV60801.94829.json